createdAt,value
2022-08-28T00:00:48.222Z,99844.40
2022-08-28T00:03:21.108Z,99845.40
2022-08-28T00:05:54.173Z,99845.20
2022-08-28T00:08:27.286Z,99846.80
2022-08-28T00:11:00.780Z,99851.00
2022-08-28T00:13:33.953Z,99847.40
2022-08-28T00:16:08.003Z,99848.20
2022-08-28T00:18:41.008Z,99843.00
2022-08-28T00:21:14.710Z,99840.40
2022-08-28T00:23:47.549Z,99844.20
2022-08-28T00:26:34.262Z,99844.80
2022-08-28T00:29:08.168Z,99851.60
2022-08-28T00:31:41.691Z,99850.40
2022-08-28T00:34:14.942Z,99854.80
2022-08-28T00:36:47.935Z,99855.80
2022-08-28T00:39:20.833Z,99856.40
2022-08-28T00:41:57.716Z,99852.20
2022-08-28T00:44:32.957Z,99850.40
2022-08-28T00:47:06.147Z,99844.80
2022-08-28T00:49:47.738Z,99842.40
2022-08-28T00:52:22.308Z,99843.20
2022-08-28T00:55:01.500Z,99838.60
2022-08-28T00:57:38.777Z,99842.80
2022-08-28T01:00:17.429Z,99840.20
2022-08-28T01:02:50.622Z,99835.80
2022-08-28T01:05:24.370Z,99836.60
2022-08-28T01:07:58.967Z,99842.60
2022-08-28T01:10:35.635Z,99848.00
2022-08-28T01:13:08.887Z,99840.60
2022-08-28T01:15:42.492Z,99843.60
2022-08-28T01:18:17.394Z,99838.80
2022-08-28T01:20:57.445Z,99842.60
2022-08-28T01:23:45.953Z,99843.20
2022-08-28T01:26:19.415Z,99848.20
2022-08-28T01:28:52.507Z,99847.40
2022-08-28T01:31:26.689Z,99844.60
2022-08-28T01:34:01.320Z,99838.40
2022-08-28T01:36:34.538Z,99841.40
2022-08-28T01:39:12.893Z,99839.80
2022-08-28T01:41:50.752Z,99834.80
2022-08-28T01:44:26.444Z,99833.60
2022-08-28T01:47:01.778Z,99835.80
2022-08-28T01:49:34.859Z,99836.40
2022-08-28T01:52:09.574Z,99829.00
2022-08-28T01:54:44.651Z,99832.20
2022-08-28T01:57:17.829Z,99826.80
2022-08-28T01:59:51.565Z,99824.00
2022-08-28T02:02:24.475Z,99822.40
2022-08-28T02:04:57.360Z,99823.80
2022-08-28T02:07:30.213Z,99822.20
2022-08-28T02:10:03.644Z,99824.00
2022-08-28T02:12:36.835Z,99825.00
2022-08-28T02:15:12.191Z,99828.60
2022-08-28T02:17:45.478Z,99831.20
2022-08-28T02:20:18.671Z,99830.60
2022-08-28T02:22:52.115Z,99828.20
2022-08-28T02:25:25.504Z,99826.60
2022-08-28T02:27:58.745Z,99825.40
2022-08-28T02:30:32.039Z,99826.60
2022-08-28T02:33:05.549Z,99828.80
2022-08-28T02:35:40.775Z,99834.00
2022-08-28T02:38:14.321Z,99830.20
2022-08-28T02:40:47.465Z,99829.60
2022-08-28T02:43:20.146Z,99828.20
2022-08-28T02:45:53.112Z,99830.60
2022-08-28T02:48:30.221Z,99833.00
2022-08-28T02:51:06.702Z,99830.60
2022-08-28T02:53:40.506Z,99835.80
2022-08-28T02:56:13.661Z,99830.60
2022-08-28T02:58:46.385Z,99830.40
2022-08-28T03:01:19.629Z,99823.20
2022-08-28T03:03:52.673Z,99824.20
2022-08-28T03:06:25.665Z,99823.20
2022-08-28T03:09:00.214Z,99824.80
2022-08-28T03:11:33.401Z,99827.80
2022-08-28T03:14:06.331Z,99827.00
2022-08-28T03:16:39.262Z,99831.80
2022-08-28T03:19:12.202Z,99832.00
2022-08-28T03:21:46.929Z,99838.20
2022-08-28T03:24:19.609Z,99838.40
2022-08-28T03:26:52.705Z,99834.20
2022-08-28T03:29:25.436Z,99838.80
2022-08-28T03:31:58.265Z,99841.00
2022-08-28T03:34:31.148Z,99835.80
2022-08-28T03:37:03.932Z,99833.80
2022-08-28T03:39:36.716Z,99830.00
2022-08-28T03:42:10.913Z,99831.20
2022-08-28T03:44:49.444Z,99831.60
2022-08-28T03:47:22.937Z,99835.00
2022-08-28T03:50:00.471Z,99834.80
2022-08-28T03:52:33.315Z,99833.60
2022-08-28T03:55:07.781Z,99837.60
2022-08-28T03:57:41.282Z,99832.20
2022-08-28T04:00:17.323Z,99834.00
2022-08-28T04:02:50.186Z,99835.80
2022-08-28T04:05:23.578Z,99839.60
2022-08-28T04:07:58.115Z,99845.40
2022-08-28T04:10:33.450Z,99846.20
2022-08-28T04:13:06.646Z,99854.80
2022-08-28T04:15:39.838Z,99856.20
2022-08-28T04:18:13.917Z,99859.60
2022-08-28T04:20:47.054Z,99858.00
2022-08-28T04:23:19.956Z,99858.60
2022-08-28T04:25:52.697Z,99857.40
2022-08-28T04:28:26.100Z,99864.00
2022-08-28T04:30:59.798Z,99858.40
2022-08-28T04:33:33.782Z,99856.00
2022-08-28T04:36:12.943Z,99859.80
2022-08-28T04:38:46.375Z,99861.80
2022-08-28T04:41:20.550Z,99866.40
2022-08-28T04:43:53.997Z,99864.80
2022-08-28T04:46:30.975Z,99867.40
2022-08-28T04:49:06.022Z,99869.40
2022-08-28T04:51:41.976Z,99871.00
2022-08-28T04:54:15.512Z,99874.80
2022-08-28T04:56:48.608Z,99874.00
2022-08-28T04:59:21.809Z,99875.80
2022-08-28T05:01:55.065Z,99874.20
2022-08-28T05:04:28.134Z,99873.80
2022-08-28T05:07:01.575Z,99873.40
2022-08-28T05:09:35.283Z,99867.40
2022-08-28T05:12:09.322Z,99865.20
2022-08-28T05:14:42.376Z,99864.80
2022-08-28T05:17:17.109Z,99865.20
2022-08-28T05:19:50.197Z,99869.80
2022-08-28T05:22:23.593Z,99866.20
2022-08-28T05:24:57.005Z,99874.40
2022-08-28T05:27:30.109Z,99877.40
2022-08-28T05:30:03.094Z,99882.20
2022-08-28T05:32:35.862Z,99876.80
2022-08-28T05:35:10.365Z,99882.40
2022-08-28T05:37:43.254Z,99879.40
2022-08-28T05:40:18.494Z,99886.40
2022-08-28T05:42:51.387Z,99886.20
2022-08-28T05:45:24.741Z,99885.60
2022-08-28T05:47:57.793Z,99891.80
2022-08-28T05:50:31.483Z,99892.20
2022-08-28T05:53:04.259Z,99891.40
2022-08-28T05:55:40.628Z,99884.20
2022-08-28T05:58:27.374Z,99881.20
2022-08-28T06:01:07.798Z,99887.20
2022-08-28T06:03:42.101Z,99890.60
2022-08-28T06:06:15.088Z,99893.20
2022-08-28T06:08:58.131Z,99892.60
2022-08-28T06:11:33.357Z,99889.00
2022-08-28T06:14:09.839Z,99891.40
2022-08-28T06:16:47.982Z,99898.00
2022-08-28T06:19:23.151Z,99897.00
2022-08-28T06:22:01.431Z,99898.60
2022-08-28T06:24:40.201Z,99900.00
2022-08-28T06:27:13.323Z,99904.00
2022-08-28T06:29:46.277Z,99905.20
2022-08-28T06:32:19.534Z,99904.20
2022-08-28T06:34:52.661Z,99900.80
2022-08-28T06:37:25.657Z,99898.80
2022-08-28T06:39:58.667Z,99896.20
2022-08-28T06:42:32.549Z,99906.20
2022-08-28T06:45:06.059Z,99904.20
2022-08-28T06:47:38.943Z,99906.20
2022-08-28T06:50:13.356Z,99900.40
2022-08-28T06:52:46.129Z,99904.80
2022-08-28T06:55:18.904Z,99905.80
2022-08-28T06:57:51.890Z,99904.20
2022-08-28T07:00:25.419Z,99903.00
2022-08-28T07:02:59.052Z,99905.00
2022-08-28T07:05:31.992Z,99908.20
2022-08-28T07:08:05.189Z,99905.20
2022-08-28T07:10:38.333Z,99907.80
2022-08-28T07:13:11.305Z,99904.80
2022-08-28T07:15:44.657Z,99908.80
2022-08-28T07:18:17.941Z,99910.40
2022-08-28T07:20:58.757Z,99905.20
2022-08-28T07:23:33.303Z,99911.60
2022-08-28T07:26:08.676Z,99910.80
2022-08-28T07:28:41.970Z,99915.60
2022-08-28T07:31:17.746Z,99916.00
2022-08-28T07:33:53.996Z,99916.40
2022-08-28T07:36:30.171Z,99921.40
2022-08-28T07:39:05.391Z,99918.80
2022-08-28T07:41:40.412Z,99918.00
2022-08-28T07:44:34.030Z,99914.00
2022-08-28T07:47:11.777Z,99924.40
2022-08-28T07:49:45.518Z,99925.60
2022-08-28T07:52:18.711Z,99929.80
2022-08-28T07:54:51.714Z,99930.00
2022-08-28T07:57:24.895Z,99929.40
2022-08-28T07:59:57.858Z,99932.40
2022-08-28T08:02:31.498Z,99932.20
2022-08-28T08:05:06.665Z,99937.60
2022-08-28T08:07:41.910Z,99933.80
2022-08-28T08:10:19.930Z,99935.60
2022-08-28T08:12:53.841Z,99938.20
2022-08-28T08:15:31.101Z,99939.00
2022-08-28T08:18:04.745Z,99938.00
2022-08-28T08:20:39.658Z,99939.20
2022-08-28T08:23:12.853Z,99938.00
2022-08-28T08:25:54.575Z,99939.80
2022-08-28T08:28:28.658Z,99940.00
2022-08-28T08:31:14.960Z,99945.60
2022-08-28T08:33:51.103Z,99950.40
2022-08-28T08:36:26.632Z,99949.20
2022-08-28T08:39:00.786Z,99950.00
2022-08-28T08:41:38.687Z,99954.00
2022-08-28T08:44:33.425Z,99952.40
2022-08-28T08:47:18.902Z,99955.40
2022-08-28T08:49:58.421Z,99955.60
2022-08-28T08:52:51.272Z,99954.80
2022-08-28T08:55:32.433Z,99954.60
2022-08-28T08:58:25.335Z,99952.40
2022-08-28T09:01:09.900Z,99959.40
2022-08-28T09:04:04.124Z,99962.00
2022-08-28T09:06:51.086Z,99963.40
2022-08-28T09:09:32.691Z,99969.00
2022-08-28T09:12:08.385Z,99959.40
2022-08-28T09:14:51.354Z,99959.80
2022-08-28T09:17:30.372Z,99964.60
2022-08-28T09:20:03.420Z,99965.20
2022-08-28T09:22:36.245Z,99964.60
2022-08-28T09:25:13.389Z,99965.40
2022-08-28T09:27:53.260Z,99965.80
2022-08-28T09:30:34.797Z,99971.60
2022-08-28T09:33:07.809Z,99970.80
2022-08-28T09:35:41.616Z,99966.40
2022-08-28T09:38:27.865Z,99959.60
2022-08-28T09:41:30.591Z,99959.20
2022-08-28T09:44:03.489Z,99963.60
2022-08-28T09:46:45.048Z,99962.20
2022-08-28T09:49:26.462Z,99959.60
2022-08-28T09:52:20.678Z,99955.00
2022-08-28T09:54:56.431Z,99956.00
2022-08-28T09:57:29.833Z,99959.60
2022-08-28T10:00:02.763Z,99960.40
2022-08-28T10:02:52.341Z,99957.60
2022-08-28T10:05:38.865Z,99954.00
2022-08-28T10:08:32.210Z,99953.60
2022-08-28T10:11:15.958Z,99961.40
2022-08-28T10:13:56.038Z,99964.20
2022-08-28T10:16:42.041Z,99963.20
2022-08-28T10:19:27.987Z,99967.60
2022-08-28T10:22:10.726Z,99970.60
2022-08-28T10:25:03.171Z,99971.60
2022-08-28T10:28:05.542Z,99974.20
2022-08-28T10:30:46.584Z,99973.80
2022-08-28T10:33:45.697Z,99971.80
2022-08-28T10:36:33.391Z,99979.00
2022-08-28T10:39:25.723Z,99977.40
2022-08-28T10:42:03.879Z,99975.80
2022-08-28T10:44:44.087Z,99972.40
2022-08-28T10:47:20.413Z,99976.40
2022-08-28T10:50:02.187Z,99977.60
2022-08-28T10:52:43.007Z,99976.60
2022-08-28T10:55:24.451Z,99977.60
2022-08-28T10:58:02.755Z,99978.40
2022-08-28T11:00:37.385Z,99981.40
2022-08-28T11:03:32.951Z,99979.20
2022-08-28T11:06:13.879Z,99979.20
2022-08-28T11:08:54.658Z,99978.40
2022-08-28T11:11:46.408Z,99975.20
2022-08-28T11:14:31.176Z,99979.60
2022-08-28T11:17:08.318Z,99980.20
2022-08-28T11:20:11.016Z,99983.00
2022-08-28T11:22:48.499Z,99984.20
2022-08-28T11:25:32.874Z,99984.80
2022-08-28T11:28:41.187Z,99986.20
2022-08-28T11:31:41.439Z,99987.00
2022-08-28T11:34:46.123Z,99993.20
2022-08-28T11:37:40.753Z,99994.60
2022-08-28T11:40:42.713Z,99995.20
2022-08-28T11:43:37.603Z,99993.40
2022-08-28T11:46:31.696Z,100000.00
2022-08-28T11:49:06.443Z,99996.80
2022-08-28T11:52:06.881Z,99994.00
2022-08-28T11:54:52.918Z,99999.00
2022-08-28T11:57:32.087Z,100000.20
2022-08-28T12:00:21.770Z,99991.60
2022-08-28T12:03:13.464Z,99996.40
2022-08-28T12:05:55.712Z,99991.00
2022-08-28T12:09:12.088Z,99992.00
2022-08-28T12:12:01.081Z,99990.60
2022-08-28T12:15:09.247Z,99995.40
2022-08-28T12:18:00.467Z,99996.20
2022-08-28T12:21:04.012Z,100006.00
2022-08-28T12:23:46.386Z,100004.00
2022-08-28T12:26:30.157Z,100006.60
2022-08-28T12:29:05.803Z,100011.00
2022-08-28T12:32:20.403Z,100016.40
2022-08-28T12:35:08.874Z,100023.80
2022-08-28T12:37:51.960Z,100029.80
2022-08-28T12:40:29.198Z,100035.00
2022-08-28T12:43:04.634Z,100032.40
2022-08-28T12:45:41.801Z,100037.80
2022-08-28T12:48:24.301Z,100037.00
2022-08-28T12:51:06.171Z,100033.40
2022-08-28T12:53:47.587Z,100031.00
2022-08-28T12:56:23.908Z,100028.00
2022-08-28T12:58:57.701Z,100027.60
2022-08-28T13:01:35.673Z,100028.80
2022-08-28T13:04:28.622Z,100025.60
2022-08-28T13:07:08.973Z,100033.40
2022-08-28T13:09:48.671Z,100037.00
2022-08-28T13:12:54.448Z,100046.20
2022-08-28T13:15:49.325Z,100054.20
2022-08-28T13:18:56.512Z,100057.80
2022-08-28T13:21:37.531Z,100056.20
2022-08-28T13:24:38.063Z,100056.20
2022-08-28T13:27:22.459Z,100064.80
2022-08-28T13:30:08.354Z,100068.60
2022-08-28T13:32:42.618Z,100062.80
2022-08-28T13:35:40.279Z,100064.20
2022-08-28T13:38:16.705Z,100067.80
2022-08-28T13:40:58.866Z,100065.00
2022-08-28T13:43:46.847Z,100065.40
2022-08-28T13:46:20.480Z,100064.00
2022-08-28T13:48:53.485Z,100067.60
2022-08-28T13:51:26.501Z,100074.20
2022-08-28T13:54:00.733Z,100078.40
2022-08-28T13:56:33.825Z,100076.00
2022-08-28T13:59:06.871Z,100076.80
2022-08-28T14:01:58.811Z,100083.60
2022-08-28T14:04:31.680Z,100079.40
2022-08-28T14:07:04.671Z,100081.80
2022-08-28T14:09:37.553Z,100089.80
2022-08-28T14:12:12.248Z,100090.20
2022-08-28T14:14:45.481Z,100085.60
2022-08-28T14:17:18.228Z,100087.20
2022-08-28T14:19:51.351Z,100088.40
2022-08-28T14:22:24.176Z,100088.80
2022-08-28T14:24:57.018Z,100088.80
2022-08-28T14:27:30.008Z,100090.20
2022-08-28T14:30:02.921Z,100091.80
2022-08-28T14:32:36.074Z,100095.00
2022-08-28T14:35:11.926Z,100093.20
2022-08-28T14:37:44.722Z,100092.60
2022-08-28T14:40:18.889Z,100096.00
2022-08-28T14:42:53.374Z,100090.60
2022-08-28T14:45:26.282Z,100092.60
2022-08-28T14:47:59.258Z,100090.80
2022-08-28T14:50:32.150Z,100093.40
2022-08-28T14:53:05.972Z,100095.20
2022-08-28T14:55:45.620Z,100096.20
2022-08-28T14:58:19.912Z,100094.60
2022-08-28T15:00:54.055Z,100093.40
2022-08-28T15:03:27.027Z,100093.60
2022-08-28T15:06:08.023Z,100091.80
2022-08-28T15:08:41.816Z,100090.80
2022-08-28T15:11:20.080Z,100088.80
2022-08-28T15:13:54.218Z,100086.80
2022-08-28T15:16:30.540Z,100087.40
2022-08-28T15:19:04.509Z,100085.20
2022-08-28T15:21:42.041Z,100079.60
2022-08-28T15:24:17.908Z,100085.80
2022-08-28T15:26:51.009Z,100080.20
2022-08-28T15:29:24.078Z,100076.60
2022-08-28T15:31:57.413Z,100081.80
2022-08-28T15:34:30.991Z,100076.20
2022-08-28T15:37:07.795Z,100077.60
2022-08-28T15:39:58.494Z,100073.20
2022-08-28T15:42:29.992Z,100071.60
2022-08-28T15:45:03.323Z,100074.20
2022-08-28T15:47:37.515Z,100071.60
2022-08-28T15:50:12.447Z,100075.60
2022-08-28T15:52:45.342Z,100076.80
2022-08-28T15:55:18.259Z,100087.20
2022-08-28T15:57:51.053Z,100085.00
2022-08-28T16:00:24.442Z,100091.80
2022-08-28T16:03:01.373Z,100089.60
2022-08-28T16:05:40.757Z,100096.80
2022-08-28T16:08:14.486Z,100099.60
2022-08-28T16:10:51.543Z,100102.40
2022-08-28T16:13:25.296Z,100101.60
2022-08-28T16:15:58.228Z,100100.60
2022-08-28T16:18:31.590Z,100104.00
2022-08-28T16:21:05.232Z,100101.40
2022-08-28T16:23:38.767Z,100105.80
2022-08-28T16:26:16.178Z,100101.00
2022-08-28T16:28:48.870Z,100106.40
2022-08-28T16:31:21.937Z,100105.80
2022-08-28T16:33:54.883Z,100108.80
2022-08-28T16:36:27.867Z,100115.60
2022-08-28T16:39:03.944Z,100121.00
2022-08-28T16:41:37.590Z,100119.00
2022-08-28T16:44:10.587Z,100118.60
2022-08-28T16:46:44.529Z,100116.00
2022-08-28T16:49:17.697Z,100116.00
2022-08-28T16:51:50.954Z,100121.40
2022-08-28T16:54:24.152Z,100116.60
2022-08-28T16:56:57.644Z,100117.00
2022-08-28T16:59:30.577Z,100120.00
2022-08-28T17:02:03.441Z,100116.80
2022-08-28T17:04:38.463Z,100116.40
2022-08-28T17:07:11.356Z,100117.60
2022-08-28T17:09:44.193Z,100116.20
2022-08-28T17:12:17.155Z,100118.20
2022-08-28T17:14:49.764Z,100121.00
2022-08-28T17:17:22.569Z,100123.00
2022-08-28T17:19:55.811Z,100126.80
2022-08-28T17:22:34.679Z,100135.80
2022-08-28T17:25:13.884Z,100138.80
2022-08-28T17:27:46.909Z,100142.00
2022-08-28T17:30:20.836Z,100140.60
2022-08-28T17:32:53.733Z,100143.80
2022-08-28T17:35:26.589Z,100145.60
2022-08-28T17:37:59.432Z,100149.00
2022-08-28T17:40:32.341Z,100153.20
2022-08-28T17:43:05.650Z,100150.80
2022-08-28T17:45:38.427Z,100147.80
2022-08-28T17:48:11.265Z,100150.40
2022-08-28T17:50:44.092Z,100152.00
2022-08-28T17:53:17.038Z,100151.00
2022-08-28T17:55:49.946Z,100154.80
2022-08-28T17:58:22.971Z,100155.00
2022-08-28T18:00:55.781Z,100157.60
2022-08-28T18:03:28.825Z,100154.20
2022-08-28T18:06:03.248Z,100159.60
2022-08-28T18:08:36.131Z,100162.80
2022-08-28T18:11:09.753Z,100160.40
2022-08-28T18:13:42.731Z,100166.40
2022-08-28T18:16:15.591Z,100170.40
2022-08-28T18:18:48.739Z,100176.20
2022-08-28T18:21:21.992Z,100175.60
2022-08-28T18:23:54.972Z,100180.00
2022-08-28T18:26:27.727Z,100180.00
2022-08-28T18:29:00.674Z,100178.80
2022-08-28T18:31:34.876Z,100183.60
2022-08-28T18:34:08.658Z,100185.80
2022-08-28T18:36:46.710Z,100186.40
2022-08-28T18:39:29.176Z,100191.80
2022-08-28T18:42:03.447Z,100196.80
2022-08-28T18:44:36.294Z,100200.40
2022-08-28T18:47:09.770Z,100201.40
2022-08-28T18:49:43.374Z,100200.80
2022-08-28T18:52:16.487Z,100198.00
2022-08-28T18:54:49.686Z,100199.60
2022-08-28T18:57:23.290Z,100202.20
2022-08-28T18:59:59.641Z,100195.40
2022-08-28T19:02:32.622Z,100201.80
2022-08-28T19:05:06.319Z,100208.00
2022-08-28T19:07:39.708Z,100211.40
2022-08-28T19:10:32.137Z,100213.80
2022-08-28T19:13:07.697Z,100215.00
2022-08-28T19:15:40.861Z,100219.00
2022-08-28T19:18:13.956Z,100217.00
2022-08-28T19:20:47.023Z,100221.20
2022-08-28T19:23:20.066Z,100227.80
2022-08-28T19:25:52.853Z,100227.00
2022-08-28T19:28:25.855Z,100227.20
2022-08-28T19:30:58.919Z,100225.00
2022-08-28T19:33:32.613Z,100224.40
2022-08-28T19:36:07.727Z,100231.00
2022-08-28T19:38:40.846Z,100232.40
2022-08-28T19:41:15.040Z,100239.20
2022-08-28T19:43:47.845Z,100235.20
2022-08-28T19:46:21.630Z,100237.00
2022-08-28T19:48:56.010Z,100235.40
2022-08-28T19:51:29.669Z,100234.40
2022-08-28T19:54:03.789Z,100237.60
2022-08-28T19:56:37.899Z,100241.20
2022-08-28T19:59:11.274Z,100245.40
2022-08-28T20:01:46.742Z,100251.40
2022-08-28T20:04:19.623Z,100249.40
2022-08-28T20:06:52.375Z,100250.00
2022-08-28T20:09:26.106Z,100250.20
2022-08-28T20:12:01.141Z,100251.00
2022-08-28T20:14:34.744Z,100249.60
2022-08-28T20:17:07.443Z,100247.20
2022-08-28T20:19:40.108Z,100249.00
2022-08-28T20:22:12.880Z,100247.80
2022-08-28T20:24:45.789Z,100250.40
2022-08-28T20:27:18.686Z,100252.40
2022-08-28T20:29:51.431Z,100252.20
2022-08-28T20:32:24.221Z,100259.40
2022-08-28T20:34:57.512Z,100260.60
2022-08-28T20:37:30.807Z,100260.60
2022-08-28T20:40:09.936Z,100265.60
2022-08-28T20:42:42.877Z,100261.00
2022-08-28T20:45:19.389Z,100264.80
2022-08-28T20:47:52.072Z,100268.40
2022-08-28T20:50:24.872Z,100273.40
2022-08-28T20:52:57.588Z,100272.00
2022-08-28T20:55:30.313Z,100276.40
2022-08-28T20:58:03.283Z,100274.00
2022-08-28T21:00:36.231Z,100279.20
2022-08-28T21:03:12.457Z,100282.40
2022-08-28T21:05:48.061Z,100280.40
2022-08-28T21:08:22.209Z,100280.80
2022-08-28T21:10:55.986Z,100280.60
2022-08-28T21:13:28.693Z,100283.60
2022-08-28T21:16:01.590Z,100287.60
2022-08-28T21:18:38.532Z,100286.00
2022-08-28T21:21:18.663Z,100283.40
2022-08-28T21:23:53.239Z,100284.20
2022-08-28T21:26:26.430Z,100290.80
2022-08-28T21:28:59.218Z,100290.80
2022-08-28T21:31:31.934Z,100290.40
2022-08-28T21:34:04.926Z,100293.40
2022-08-28T21:36:38.600Z,100294.80
2022-08-28T21:39:11.374Z,100296.80
2022-08-28T21:41:44.044Z,100304.60
2022-08-28T21:44:17.853Z,100303.20
2022-08-28T21:46:50.600Z,100306.40
2022-08-28T21:49:23.802Z,100307.00
2022-08-28T21:51:56.520Z,100304.40
2022-08-28T21:54:29.642Z,100310.40
2022-08-28T21:57:02.483Z,100309.00
2022-08-28T21:59:37.991Z,100315.00
2022-08-28T22:02:11.166Z,100315.80
2022-08-28T22:04:44.010Z,100314.80
2022-08-28T22:07:17.007Z,100321.20
2022-08-28T22:09:49.766Z,100318.80
2022-08-28T22:12:22.753Z,100318.20
2022-08-28T22:14:55.538Z,100320.00
2022-08-28T22:17:28.527Z,100322.80
2022-08-28T22:20:01.366Z,100325.80
2022-08-28T22:22:52.133Z,100323.00
2022-08-28T22:25:25.349Z,100323.00
2022-08-28T22:27:58.233Z,100323.00
2022-08-28T22:30:31.274Z,100327.60
2022-08-28T22:33:04.871Z,100329.60
2022-08-28T22:35:37.661Z,100333.40
2022-08-28T22:38:11.487Z,100336.40
2022-08-28T22:40:44.291Z,100333.40
2022-08-28T22:43:17.653Z,100336.60
2022-08-28T22:45:50.873Z,100337.40
2022-08-28T22:48:24.027Z,100330.60
2022-08-28T22:51:13.858Z,100336.20
2022-08-28T22:53:48.183Z,100335.60
2022-08-28T22:56:21.522Z,100333.20
2022-08-28T22:58:54.305Z,100330.20
2022-08-28T23:01:28.690Z,100336.40
2022-08-28T23:04:03.055Z,100335.60
2022-08-28T23:06:39.922Z,100338.00
2022-08-28T23:09:12.813Z,100338.80
2022-08-28T23:11:45.491Z,100339.60
2022-08-28T23:14:18.491Z,100346.60
2022-08-28T23:16:51.686Z,100344.80
2022-08-28T23:19:24.648Z,100346.20
2022-08-28T23:21:58.546Z,100348.20
2022-08-28T23:24:31.752Z,100346.80
2022-08-28T23:27:25.493Z,100340.20
2022-08-28T23:29:57.500Z,100335.60
2022-08-28T23:32:30.986Z,100338.80
2022-08-28T23:35:08.163Z,100346.20
2022-08-28T23:37:46.666Z,100348.80
2022-08-28T23:40:24.483Z,100352.60
2022-08-28T23:42:58.256Z,100350.20
2022-08-28T23:45:32.505Z,100348.40
2022-08-28T23:48:06.805Z,100344.40
2022-08-28T23:50:40.883Z,100344.00
2022-08-28T23:53:14.598Z,100347.60
2022-08-28T23:55:50.233Z,100345.20
2022-08-28T23:58:23.018Z,100352.60
